createdAt,value
2018-12-31T00:01:14.877Z,3.33
2018-12-31T00:03:56.202Z,4.63
2018-12-31T00:06:37.672Z,4.63
2018-12-31T00:09:18.336Z,4.83
2018-12-31T00:11:59.777Z,4.33
2018-12-31T00:14:41.105Z,3.63
2018-12-31T00:17:21.944Z,5.07
2018-12-31T00:20:02.917Z,3.23
2018-12-31T00:22:43.803Z,2.60
2018-12-31T00:25:25.048Z,4.77
2018-12-31T00:28:06.112Z,3.60
2018-12-31T00:30:47.291Z,3.70
2018-12-31T00:33:28.008Z,4.13
2018-12-31T00:36:08.737Z,3.37
2018-12-31T00:38:49.494Z,4.37
2018-12-31T00:41:30.364Z,3.33
2018-12-31T00:44:11.655Z,3.20
2018-12-31T00:46:52.397Z,4.33
2018-12-31T00:49:33.437Z,3.43
2018-12-31T00:52:14.204Z,2.60
2018-12-31T00:54:55.319Z,2.10
2018-12-31T00:57:36.509Z,1.93
2018-12-31T01:00:17.781Z,2.60
2018-12-31T01:02:58.486Z,2.27
2018-12-31T01:05:39.188Z,3.23
2018-12-31T01:08:20.196Z,1.50
2018-12-31T01:11:00.729Z,2.80
2018-12-31T01:13:41.363Z,2.87
2018-12-31T01:16:22.389Z,2.83
2018-12-31T01:19:03.426Z,2.10
2018-12-31T01:21:44.409Z,3.07
2018-12-31T01:24:25.040Z,2.97
2018-12-31T01:27:06.490Z,3.50
2018-12-31T01:29:47.162Z,3.47
2018-12-31T01:32:28.087Z,3.57
2018-12-31T01:35:08.628Z,2.73
2018-12-31T01:37:49.054Z,2.80
2018-12-31T01:40:29.764Z,2.60
2018-12-31T01:43:10.656Z,2.20
2018-12-31T01:45:51.368Z,2.23
2018-12-31T01:48:31.999Z,3.43
2018-12-31T01:51:12.952Z,3.57
2018-12-31T01:53:53.589Z,3.40
2018-12-31T01:56:34.195Z,2.20
2018-12-31T01:59:15.168Z,2.73
2018-12-31T02:01:55.828Z,2.00
2018-12-31T02:04:36.489Z,1.63
2018-12-31T02:07:17.353Z,2.80
2018-12-31T02:09:58.081Z,1.77
2018-12-31T02:12:38.816Z,1.67
2018-12-31T02:15:19.548Z,2.87
2018-12-31T02:18:00.735Z,2.23
2018-12-31T02:20:41.489Z,2.60
2018-12-31T02:23:22.560Z,2.70
2018-12-31T02:26:03.279Z,2.50
2018-12-31T02:28:44.609Z,1.93
2018-12-31T02:31:25.211Z,2.93
2018-12-31T02:34:06.260Z,1.70
2018-12-31T02:36:47.103Z,2.10
2018-12-31T02:39:27.889Z,2.97
2018-12-31T02:42:08.851Z,2.50
2018-12-31T02:44:49.585Z,1.87
2018-12-31T02:47:30.332Z,3.27
2018-12-31T02:50:11.243Z,2.57
2018-12-31T02:52:51.949Z,3.87
2018-12-31T02:55:32.967Z,2.10
2018-12-31T02:58:13.839Z,3.13
2018-12-31T03:00:54.405Z,3.90
2018-12-31T03:03:36.661Z,2.23
2018-12-31T03:06:17.457Z,2.23
2018-12-31T03:08:58.368Z,2.90
2018-12-31T03:11:39.299Z,2.37
2018-12-31T03:14:20.044Z,2.47
2018-12-31T03:17:00.728Z,2.10
2018-12-31T03:19:41.537Z,1.60
2018-12-31T03:22:22.687Z,2.67
2018-12-31T03:25:03.520Z,1.40
2018-12-31T03:27:44.208Z,1.97
2018-12-31T03:30:25.321Z,2.63
2018-12-31T03:33:05.972Z,2.10
2018-12-31T03:35:46.773Z,1.20
2018-12-31T03:38:26.069Z,1.93
2018-12-31T03:41:07.043Z,1.00
2018-12-31T03:43:47.845Z,0.60
2018-12-31T03:46:28.559Z,1.20
2018-12-31T03:49:09.345Z,0.80
2018-12-31T03:51:49.866Z,2.20
2018-12-31T03:54:31.244Z,2.03
2018-12-31T03:57:12.130Z,1.00
2018-12-31T03:59:52.691Z,1.00
2018-12-31T04:02:33.683Z,0.73
2018-12-31T04:05:14.124Z,1.30
2018-12-31T04:07:55.132Z,1.00
2018-12-31T04:10:36.297Z,0.83
2018-12-31T04:13:16.657Z,1.13
2018-12-31T04:15:57.675Z,1.20
2018-12-31T04:18:38.634Z,2.10
2018-12-31T04:21:19.264Z,2.13
2018-12-31T04:24:00.141Z,2.63
2018-12-31T04:26:41.028Z,1.10
2018-12-31T04:29:21.811Z,1.40
2018-12-31T04:32:02.400Z,1.33
2018-12-31T04:34:43.265Z,0.83
2018-12-31T04:37:24.024Z,1.67
2018-12-31T04:40:06.527Z,2.30
2018-12-31T04:42:47.633Z,3.33
2018-12-31T04:45:28.517Z,3.90
2018-12-31T04:48:09.141Z,3.90
2018-12-31T04:50:49.973Z,3.07
2018-12-31T04:53:30.989Z,3.70
2018-12-31T04:55:59.857Z,1.33
2018-12-31T04:58:47.972Z,4.17
2018-12-31T05:01:29.050Z,2.97
2018-12-31T05:03:57.883Z,1.33
2018-12-31T05:06:45.960Z,1.97
2018-12-31T05:09:14.766Z,1.40
2018-12-31T05:12:22.017Z,1.90
2018-12-31T05:15:02.589Z,1.10
2018-12-31T05:17:43.715Z,1.33
2018-12-31T05:20:24.539Z,4.30
2018-12-31T05:23:05.582Z,2.77
2018-12-31T05:25:46.134Z,1.80
2018-12-31T05:28:26.696Z,2.63
2018-12-31T05:31:07.549Z,1.67
2018-12-31T05:33:48.230Z,1.63
2018-12-31T05:36:29.413Z,2.40
2018-12-31T05:39:10.197Z,2.00
2018-12-31T05:41:51.268Z,1.40
2018-12-31T05:44:32.004Z,3.77
2018-12-31T05:47:13.178Z,2.97
2018-12-31T05:49:53.895Z,3.23
2018-12-31T05:52:34.782Z,3.30
2018-12-31T05:58:03.582Z,2.10
2018-12-31T06:00:44.872Z,4.30
2018-12-31T06:06:21.061Z,4.60
2018-12-31T06:09:02.113Z,2.50
2018-12-31T06:11:43.312Z,2.53
2018-12-31T06:14:24.389Z,2.93
2018-12-31T06:17:05.154Z,3.27
2018-12-31T06:19:53.344Z,2.93
2018-12-31T06:22:34.278Z,2.10
2018-12-31T06:25:15.156Z,2.20
2018-12-31T06:27:56.003Z,1.60
2018-12-31T06:30:36.787Z,1.83
2018-12-31T06:33:17.525Z,3.33
2018-12-31T06:35:58.405Z,2.80
2018-12-31T06:38:39.279Z,3.73
2018-12-31T06:41:08.130Z,3.23
2018-12-31T06:43:56.138Z,7.40
2018-12-31T06:46:36.437Z,4.43
2018-12-31T06:49:17.624Z,3.10
2018-12-31T06:51:58.770Z,6.23
2018-12-31T06:54:39.941Z,5.80
2018-12-31T06:57:20.849Z,8.37
2018-12-31T07:00:01.882Z,2.97
2018-12-31T07:02:42.609Z,1.67
2018-12-31T07:05:23.798Z,9.10
2018-12-31T07:08:04.522Z,8.67
2018-12-31T07:10:33.476Z,8.67
2018-12-31T07:16:15.419Z,6.03
2018-12-31T07:18:44.408Z,6.57
2018-12-31T07:21:13.279Z,7.20
2018-12-31T07:24:01.411Z,7.03
2018-12-31T07:26:49.747Z,11.87
2018-12-31T07:29:37.973Z,11.30
2018-12-31T07:32:26.019Z,18.37
2018-12-31T07:35:06.980Z,9.77
2018-12-31T07:37:47.686Z,18.77
2018-12-31T07:40:28.864Z,17.90
2018-12-31T07:43:09.769Z,20.57
2018-12-31T07:45:38.732Z,21.53
2018-12-31T07:48:07.815Z,21.17
2018-12-31T07:50:36.627Z,13.60
2018-12-31T07:53:05.491Z,13.33
2018-12-31T07:55:34.312Z,18.53
2018-12-31T07:58:03.287Z,13.17
2018-12-31T08:00:32.163Z,8.57
2018-12-31T08:03:01.007Z,24.73
2018-12-31T08:05:29.953Z,27.33
2018-12-31T08:07:58.790Z,12.03
2018-12-31T08:10:27.607Z,26.60
2018-12-31T08:12:56.443Z,19.70
2018-12-31T08:15:25.244Z,20.10
2018-12-31T08:17:54.075Z,27.83
2018-12-31T08:20:22.886Z,19.37
2018-12-31T08:22:51.784Z,9.73
2018-12-31T08:25:20.592Z,14.90
2018-12-31T08:27:51.376Z,20.80
2018-12-31T08:30:20.637Z,8.13
2018-12-31T08:32:49.459Z,7.43
2018-12-31T08:35:18.340Z,18.57
2018-12-31T08:37:47.201Z,29.50
2018-12-31T08:40:16.183Z,23.63
2018-12-31T08:42:45.016Z,15.03
2018-12-31T08:45:13.823Z,30.63
2018-12-31T08:47:42.677Z,32.70
2018-12-31T08:50:11.481Z,35.70
2018-12-31T08:52:40.385Z,44.30
2018-12-31T08:55:09.217Z,47.27
2018-12-31T08:57:38.051Z,46.33
2018-12-31T09:00:07.516Z,54.40
2018-12-31T09:02:36.435Z,57.53
2018-12-31T09:05:05.871Z,49.70
2018-12-31T09:07:35.788Z,42.30
2018-12-31T09:10:05.296Z,46.53
2018-12-31T09:12:34.456Z,59.90
2018-12-31T09:15:03.348Z,49.77
2018-12-31T09:17:32.235Z,40.30
2018-12-31T09:20:01.122Z,49.93
2018-12-31T09:22:29.968Z,66.17
2018-12-31T09:24:58.828Z,39.10
2018-12-31T09:27:27.647Z,52.80
2018-12-31T09:29:56.724Z,32.23
2018-12-31T09:32:25.616Z,44.10
2018-12-31T09:34:54.528Z,22.13
2018-12-31T09:37:23.368Z,40.80
2018-12-31T09:39:52.204Z,53.87
2018-12-31T09:42:21.115Z,40.77
2018-12-31T09:44:49.932Z,21.07
2018-12-31T09:47:18.819Z,13.57
2018-12-31T09:49:47.741Z,13.50
2018-12-31T09:52:16.573Z,32.10
2018-12-31T09:54:45.415Z,37.27
2018-12-31T09:57:14.228Z,49.20
2018-12-31T09:59:43.128Z,46.03
2018-12-31T10:02:12.011Z,47.87
2018-12-31T10:04:40.853Z,29.30
2018-12-31T10:07:09.752Z,39.67
2018-12-31T10:09:38.653Z,35.17
2018-12-31T10:12:07.484Z,37.07
2018-12-31T10:14:36.462Z,41.93
2018-12-31T10:17:05.279Z,45.00
2018-12-31T10:19:34.124Z,31.43
2018-12-31T10:22:03.019Z,32.97
2018-12-31T10:24:31.875Z,32.63
2018-12-31T10:27:00.824Z,42.03
2018-12-31T10:29:35.944Z,33.27
2018-12-31T10:32:00.259Z,34.97
2018-12-31T10:34:29.805Z,29.03
2018-12-31T10:36:58.683Z,52.20
2018-12-31T10:39:27.615Z,51.57
2018-12-31T10:41:56.529Z,29.43
2018-12-31T10:44:25.369Z,47.63
2018-12-31T10:46:54.316Z,23.80
2018-12-31T10:49:23.388Z,42.73
2018-12-31T10:51:52.418Z,39.83
2018-12-31T10:54:23.835Z,34.13
2018-12-31T10:56:52.692Z,32.53
2018-12-31T10:59:22.079Z,25.80
2018-12-31T11:01:51.147Z,37.10
2018-12-31T11:04:20.102Z,40.77
2018-12-31T11:06:48.914Z,49.03
2018-12-31T11:09:17.827Z,38.23
2018-12-31T11:11:46.640Z,71.17
2018-12-31T11:14:15.576Z,44.10
2018-12-31T11:16:44.461Z,38.70
2018-12-31T11:19:13.280Z,27.30
2018-12-31T11:21:42.197Z,37.87
2018-12-31T11:24:12.727Z,24.73
2018-12-31T11:26:41.881Z,20.00
2018-12-31T11:29:10.702Z,39.47
2018-12-31T11:31:39.614Z,31.73
2018-12-31T11:34:08.553Z,35.00
2018-12-31T11:36:38.054Z,34.90
2018-12-31T11:39:08.080Z,38.77
2018-12-31T11:41:58.160Z,52.70
2018-12-31T11:44:47.319Z,44.10
2018-12-31T11:47:27.956Z,36.97
2018-12-31T11:50:08.964Z,19.73
2018-12-31T11:52:49.457Z,36.47
2018-12-31T11:58:31.467Z,48.33
2018-12-31T12:01:15.192Z,37.53
2018-12-31T12:03:44.343Z,33.33
2018-12-31T12:06:32.469Z,32.60
2018-12-31T12:12:08.562Z,35.43
2018-12-31T12:14:37.748Z,26.73
2018-12-31T12:17:06.663Z,29.73
2018-12-31T12:19:35.514Z,27.23
2018-12-31T12:22:04.678Z,37.10
2018-12-31T12:24:33.732Z,30.97
2018-12-31T12:27:03.317Z,31.87
2018-12-31T12:29:32.396Z,23.90
2018-12-31T12:32:01.243Z,29.00
2018-12-31T12:34:30.133Z,30.33
2018-12-31T12:37:02.091Z,45.20
2018-12-31T12:39:30.940Z,19.53
2018-12-31T12:42:00.519Z,36.93
2018-12-31T12:44:29.336Z,33.47
2018-12-31T12:46:58.195Z,31.30
2018-12-31T12:49:27.004Z,47.37
2018-12-31T12:51:56.260Z,33.73
2018-12-31T12:54:25.086Z,33.10
2018-12-31T12:56:54.510Z,35.90
2018-12-31T12:59:23.776Z,31.97
2018-12-31T13:01:52.893Z,37.97
2018-12-31T13:04:22.597Z,22.53
2018-12-31T13:06:51.588Z,32.03
2018-12-31T13:09:20.537Z,33.83
2018-12-31T13:11:49.408Z,24.53
2018-12-31T13:14:18.221Z,35.17
2018-12-31T13:16:47.356Z,27.07
2018-12-31T13:19:16.170Z,24.03
2018-12-31T13:21:46.075Z,27.63
2018-12-31T13:24:15.620Z,16.00
2018-12-31T13:26:44.461Z,20.23
2018-12-31T13:29:13.566Z,15.63
2018-12-31T13:31:45.873Z,17.77
2018-12-31T13:34:14.812Z,32.07
2018-12-31T13:36:43.680Z,23.17
2018-12-31T13:39:12.781Z,27.17
2018-12-31T13:41:41.709Z,27.07
2018-12-31T13:44:10.529Z,16.97
2018-12-31T13:46:39.460Z,22.50
2018-12-31T13:49:08.468Z,31.43
2018-12-31T13:51:37.894Z,20.83
2018-12-31T13:54:07.031Z,16.07
2018-12-31T13:56:35.946Z,16.83
2018-12-31T13:59:04.925Z,12.73
2018-12-31T14:01:33.878Z,18.50
2018-12-31T14:04:03.173Z,22.53
2018-12-31T14:06:32.064Z,13.77
2018-12-31T14:09:00.876Z,23.20
2018-12-31T14:11:29.732Z,45.07
2018-12-31T14:13:58.550Z,26.97
2018-12-31T14:16:27.755Z,21.70
2018-12-31T14:18:56.573Z,16.53
2018-12-31T14:21:25.438Z,41.17
2018-12-31T14:23:54.688Z,24.30
2018-12-31T14:26:23.512Z,29.53
2018-12-31T14:28:52.537Z,20.77
2018-12-31T14:31:21.340Z,13.53
2018-12-31T14:33:50.343Z,33.13
2018-12-31T14:36:19.173Z,19.50
2018-12-31T14:38:48.174Z,23.83
2018-12-31T14:41:17.618Z,22.00
2018-12-31T14:43:46.950Z,16.73
2018-12-31T14:46:15.762Z,16.70
2018-12-31T14:48:44.626Z,15.13
2018-12-31T14:51:13.623Z,19.70
2018-12-31T14:53:42.816Z,22.07
2018-12-31T14:56:11.966Z,18.10
2018-12-31T14:58:40.839Z,30.47
2018-12-31T15:01:09.823Z,20.37
2018-12-31T15:03:38.652Z,15.63
2018-12-31T15:06:07.728Z,20.27
2018-12-31T15:08:36.572Z,15.67
2018-12-31T15:11:05.548Z,26.40
2018-12-31T15:13:34.464Z,24.27
2018-12-31T15:16:04.657Z,24.00
2018-12-31T15:18:33.643Z,30.73
2018-12-31T15:21:02.547Z,26.37
2018-12-31T15:23:31.522Z,25.80
2018-12-31T15:26:00.743Z,23.63
2018-12-31T15:28:29.994Z,27.03
2018-12-31T15:30:58.943Z,33.77
2018-12-31T15:33:29.009Z,35.23
2018-12-31T15:35:57.963Z,40.50
2018-12-31T15:38:26.832Z,23.93
2018-12-31T15:40:55.652Z,26.33
2018-12-31T15:43:24.575Z,23.37
2018-12-31T15:45:53.548Z,27.07
2018-12-31T15:48:22.529Z,30.23
2018-12-31T15:50:51.425Z,26.83
2018-12-31T15:53:20.482Z,31.83
2018-12-31T15:55:49.600Z,20.37
2018-12-31T15:58:18.476Z,17.43
2018-12-31T16:00:47.293Z,26.20
2018-12-31T16:03:16.200Z,13.57
2018-12-31T16:05:45.096Z,25.20
2018-12-31T16:08:14.219Z,33.53
2018-12-31T16:10:43.129Z,34.27
2018-12-31T16:13:11.973Z,21.77
2018-12-31T16:15:40.880Z,15.77
2018-12-31T16:18:09.714Z,20.33
2018-12-31T16:20:39.087Z,19.20
2018-12-31T16:23:08.179Z,22.93
2018-12-31T16:25:37.251Z,30.27
2018-12-31T16:28:07.350Z,22.07
2018-12-31T16:30:36.429Z,28.03
2018-12-31T16:33:05.835Z,39.47
2018-12-31T16:35:34.701Z,25.40
2018-12-31T16:38:03.721Z,28.73
2018-12-31T16:40:32.853Z,27.27
2018-12-31T16:43:01.953Z,29.07
2018-12-31T16:45:31.561Z,44.07
2018-12-31T16:48:00.372Z,39.37
2018-12-31T16:50:29.300Z,33.50
2018-12-31T16:52:58.120Z,23.63
2018-12-31T16:55:27.633Z,25.80
2018-12-31T16:57:57.354Z,19.03
2018-12-31T17:00:26.411Z,13.63
2018-12-31T17:02:55.652Z,22.03
2018-12-31T17:05:24.638Z,34.77
2018-12-31T17:07:54.804Z,22.73
2018-12-31T17:10:24.156Z,17.50
2018-12-31T17:12:53.469Z,17.50
2018-12-31T17:15:22.579Z,17.57
2018-12-31T17:17:51.408Z,23.13
2018-12-31T17:20:20.255Z,10.47
2018-12-31T17:22:49.792Z,26.03
2018-12-31T17:25:18.704Z,29.30
2018-12-31T17:27:47.643Z,24.43
2018-12-31T17:30:16.840Z,32.77
2018-12-31T17:32:46.009Z,35.17
2018-12-31T17:35:16.334Z,38.40
2018-12-31T17:37:45.235Z,29.57
2018-12-31T17:40:14.063Z,17.27
2018-12-31T17:42:42.896Z,17.40
2018-12-31T17:45:11.759Z,24.70
2018-12-31T17:47:40.580Z,21.73
2018-12-31T17:50:09.580Z,35.47
2018-12-31T17:52:38.386Z,36.17
2018-12-31T17:55:07.376Z,29.73
2018-12-31T17:57:36.197Z,31.50
2018-12-31T18:00:06.714Z,41.93
2018-12-31T18:02:35.779Z,34.10
2018-12-31T18:05:04.831Z,32.70
2018-12-31T18:07:33.670Z,25.77
2018-12-31T18:10:02.611Z,30.43
2018-12-31T18:12:31.448Z,21.97
2018-12-31T18:15:00.298Z,22.83
2018-12-31T18:17:29.096Z,30.27
2018-12-31T18:19:58.876Z,20.30
2018-12-31T18:22:27.836Z,28.70
2018-12-31T18:24:56.673Z,32.13
2018-12-31T18:27:25.488Z,28.90
2018-12-31T18:29:54.395Z,24.80
2018-12-31T18:32:23.448Z,19.67
2018-12-31T18:34:52.362Z,20.87
2018-12-31T18:37:21.247Z,15.60
2018-12-31T18:39:50.154Z,14.73
2018-12-31T18:42:18.973Z,22.67
2018-12-31T18:44:47.795Z,22.37
2018-12-31T18:47:16.621Z,22.20
2018-12-31T18:49:45.531Z,16.80
2018-12-31T18:52:14.356Z,19.07
2018-12-31T18:54:43.207Z,18.43
2018-12-31T18:57:12.096Z,17.50
2018-12-31T18:59:40.928Z,13.37
2018-12-31T19:02:09.735Z,12.07
2018-12-31T19:04:38.644Z,14.20
2018-12-31T19:07:07.454Z,9.23
2018-12-31T19:09:36.300Z,13.03
2018-12-31T19:12:05.276Z,9.47
2018-12-31T19:14:34.220Z,24.33
2018-12-31T19:17:03.400Z,22.80
2018-12-31T19:19:32.332Z,12.27
2018-12-31T19:22:01.142Z,12.00
2018-12-31T19:24:30.022Z,11.50
2018-12-31T19:26:58.858Z,10.27
2018-12-31T19:29:27.661Z,11.07
2018-12-31T19:31:57.311Z,15.80
2018-12-31T19:34:26.181Z,15.47
2018-12-31T19:36:55.528Z,21.23
2018-12-31T19:39:24.505Z,19.53
2018-12-31T19:41:53.345Z,13.13
2018-12-31T19:44:22.234Z,16.50
2018-12-31T19:46:51.144Z,17.97
2018-12-31T19:49:19.941Z,16.27
2018-12-31T19:51:49.023Z,21.03
2018-12-31T19:54:17.904Z,13.80
2018-12-31T19:56:46.747Z,25.10
2018-12-31T19:59:15.754Z,24.03
2018-12-31T20:01:44.604Z,15.23
2018-12-31T20:04:13.500Z,15.83
2018-12-31T20:06:42.775Z,14.10
2018-12-31T20:09:11.725Z,17.47
2018-12-31T20:11:41.290Z,16.27
2018-12-31T20:14:10.175Z,16.57
2018-12-31T20:16:39.116Z,13.60
2018-12-31T20:19:08.083Z,28.30
2018-12-31T20:21:37.053Z,23.83
2018-12-31T20:24:05.941Z,27.80
2018-12-31T20:26:34.788Z,16.83
2018-12-31T20:29:03.908Z,19.73
2018-12-31T20:31:32.751Z,20.00
2018-12-31T20:34:01.719Z,25.03
2018-12-31T20:36:30.745Z,19.93
2018-12-31T20:39:00.088Z,17.77
2018-12-31T20:41:28.929Z,20.23
2018-12-31T20:43:57.820Z,17.37
2018-12-31T20:46:27.188Z,21.13
2018-12-31T20:48:56.422Z,18.80
2018-12-31T20:51:25.705Z,31.00
2018-12-31T20:53:54.520Z,21.60
2018-12-31T20:56:23.339Z,23.23
2018-12-31T20:58:52.150Z,33.83
2018-12-31T21:01:20.988Z,33.27
2018-12-31T21:03:49.793Z,35.70
2018-12-31T21:06:18.645Z,41.87
2018-12-31T21:08:47.444Z,28.90
2018-12-31T21:11:16.612Z,31.63
2018-12-31T21:13:45.547Z,34.30
2018-12-31T21:16:14.480Z,37.67
2018-12-31T21:18:43.291Z,35.00
2018-12-31T21:21:12.288Z,34.40
2018-12-31T21:23:41.393Z,41.63
2018-12-31T21:26:10.318Z,27.87
2018-12-31T21:28:39.500Z,33.17
2018-12-31T21:31:08.384Z,27.77
2018-12-31T21:33:37.217Z,34.20
2018-12-31T21:36:06.392Z,30.40
2018-12-31T21:38:35.387Z,32.57
2018-12-31T21:41:04.644Z,23.77
2018-12-31T21:43:33.710Z,34.67
2018-12-31T21:46:02.675Z,34.90
2018-12-31T21:48:31.866Z,30.50
2018-12-31T21:51:02.139Z,34.30
2018-12-31T21:53:31.046Z,30.37
2018-12-31T21:56:00.007Z,29.47
2018-12-31T21:58:28.843Z,32.97
2018-12-31T22:00:57.732Z,31.00
2018-12-31T22:03:26.593Z,32.60
2018-12-31T22:05:55.406Z,22.53
2018-12-31T22:08:24.319Z,28.30
2018-12-31T22:10:53.128Z,26.40
2018-12-31T22:13:21.967Z,29.20
2018-12-31T22:15:50.798Z,30.67
2018-12-31T22:18:19.664Z,20.20
2018-12-31T22:20:48.920Z,26.37
2018-12-31T22:23:17.848Z,29.67
2018-12-31T22:25:46.655Z,29.93
2018-12-31T22:28:15.572Z,27.83
2018-12-31T22:30:44.464Z,24.33
2018-12-31T22:33:13.743Z,26.20
2018-12-31T22:35:42.632Z,27.63
2018-12-31T22:38:11.620Z,26.13
2018-12-31T22:40:40.436Z,20.83
2018-12-31T22:43:09.478Z,19.57
2018-12-31T22:45:38.444Z,18.40
2018-12-31T22:48:07.636Z,24.93
2018-12-31T22:50:36.521Z,28.20
2018-12-31T22:53:05.432Z,29.77
2018-12-31T22:55:34.319Z,30.03
2018-12-31T22:58:03.135Z,32.93
2018-12-31T23:00:32.893Z,35.07
2018-12-31T23:03:01.800Z,45.00
2018-12-31T23:05:34.037Z,83.17
2018-12-31T23:08:02.954Z,90.67
2018-12-31T23:10:32.219Z,91.23
2018-12-31T23:13:01.076Z,102.60
2018-12-31T23:15:30.911Z,151.13
2018-12-31T23:18:00.319Z,171.73
2018-12-31T23:20:29.146Z,159.97
2018-12-31T23:22:58.434Z,152.63
2018-12-31T23:25:28.220Z,182.50
2018-12-31T23:27:57.300Z,125.93
2018-12-31T23:30:26.192Z,164.53
2018-12-31T23:33:14.233Z,146.30
2018-12-31T23:35:54.645Z,104.17
2018-12-31T23:38:44.608Z,103.70
2018-12-31T23:41:32.874Z,318.70
2018-12-31T23:44:12.072Z,117.70
2018-12-31T23:47:00.635Z,77.17
2018-12-31T23:49:41.605Z,66.10
2018-12-31T23:52:22.607Z,59.97
2018-12-31T23:55:03.480Z,43.73
2018-12-31T23:57:44.187Z,43.10
